Time;durP1;ratioP1;P1;durP2;ratioP2;P2;SDS_P1;SDS_P2;PMS_P1;PMS_P2;Temp;Humidity;BMP_temperature;BMP_pressure;BME280_temperature;BME280_humidity;BME280_pressure;Samples;Min_cycle;Max_cycle;Signal;HPM_P1;HPM_P2
2022/08/30 04:00:54;;;;;;;1999.90;999.90;;;;;;;;;;5964797;23;21253;-68
2022/08/30 04:03:38;;;;;;;1999.90;999.90;;;;;;;;;;4971703;28;20725;-70
2022/08/30 04:06:24;;;;;;;1999.90;999.90;;;;;;;;;;4965346;28;20703;-69
2022/08/30 04:09:09;;;;;;;1999.90;999.90;;;;;;;;;;4972298;28;20226;-70
2022/08/30 04:11:54;;;;;;;1999.90;999.90;;;;;;;;;;4972954;28;20727;-70
2022/08/30 04:14:39;;;;;;;1999.90;999.90;;;;;;;;;;4971786;28;20219;-69
2022/08/30 04:17:26;;;;;;;1999.90;999.90;;;;;;;;;;4973281;28;20231;-68
2022/08/30 04:20:11;;;;;;;1999.90;999.90;;;;;;;;;;4968947;28;20453;-69
2022/08/30 04:22:56;;;;;;;1999.90;999.90;;;;;;;;;;4956667;28;20620;-67
2022/08/30 04:25:42;;;;;;;1999.90;999.90;;;;;;;;;;4965673;28;20620;-70
2022/08/30 04:28:27;;;;;;;1999.90;999.90;;;;;;;;;;4962176;28;20208;-69
2022/08/30 04:31:13;;;;;;;1999.90;999.90;;;;;;;;;;4962035;28;20252;-68
2022/08/30 04:34:00;;;;;;;1999.90;999.90;;;;;;;;;;4965956;28;20204;-69
2022/08/30 04:36:45;;;;;;;1999.90;999.90;;;;;;;;;;4966590;28;20215;-69
2022/08/30 04:39:30;;;;;;;1999.90;999.90;;;;;;;;;;4975048;28;20933;-70
2022/08/30 04:42:14;;;;;;;1999.90;999.90;;;;;;;;;;4958409;28;20726;-68
2022/08/30 04:45:01;;;;;;;1999.90;999.90;;;;;;;;;;4975088;28;20582;-68
2022/08/30 04:47:46;;;;;;;1999.90;999.90;;;;;;;;;;4963483;28;20343;-68
2022/08/30 04:50:33;;;;;;;1999.90;999.90;;;;;;;;;;4973301;28;20223;-69
2022/08/30 04:53:18;;;;;;;1999.90;999.90;;;;;;;;;;4957290;29;20211;-69
2022/08/30 04:56:07;;;;;;;1999.90;999.90;;;;;;;;;;4969511;28;20223;-68
2022/08/30 04:58:52;;;;;;;1999.90;999.90;;;;;;;;;;4975960;28;20300;-68
2022/08/30 05:01:37;;;;;;;1999.90;999.90;;;;;;;;;;4972227;28;20725;-67
2022/08/30 05:04:22;;;;;;;1999.90;999.90;;;;;;;;;;4974699;28;20211;-67
2022/08/30 05:07:09;;;;;;;1999.90;999.90;;;;;;;;;;4974817;28;20283;-68
2022/08/30 05:09:54;;;;;;;1999.90;999.90;;;;;;;;;;4974721;28;20578;-65
2022/08/30 05:12:39;;;;;;;1999.90;999.90;;;;;;;;;;4974620;28;20228;-67
2022/08/30 05:15:24;;;;;;;1999.90;999.90;;;;;;;;;;4974428;28;20578;-69
2022/08/30 05:18:09;;;;;;;1999.90;999.90;;;;;;;;;;4974678;28;20211;-69
2022/08/30 05:21:02;;;;;;;1999.90;999.90;;;;;;;;;;4972590;28;20730;-67
2022/08/30 05:23:49;;;;;;;1999.90;999.90;;;;;;;;;;4974817;28;20729;-68
2022/08/30 05:26:37;;;;;;;1999.90;999.90;;;;;;;;;;4974289;28;20282;-67
2022/08/30 05:29:22;;;;;;;1999.90;999.90;;;;;;;;;;4974431;28;20208;-69
2022/08/30 05:32:08;;;;;;;1999.90;999.90;;;;;;;;;;4975621;28;20227;-68
2022/08/30 05:34:52;;;;;;;1999.90;999.90;;;;;;;;;;4975500;28;20208;-69
2022/08/30 05:37:37;;;;;;;1999.90;999.90;;;;;;;;;;4975609;28;20203;-69
2022/08/30 05:40:24;;;;;;;1999.90;999.90;;;;;;;;;;4974571;28;20443;-69
2022/08/30 05:43:09;;;;;;;1999.90;999.90;;;;;;;;;;4975467;28;20298;-69
2022/08/30 05:45:58;;;;;;;1999.90;999.90;;;;;;;;;;4955886;29;20336;-68
2022/08/30 05:48:42;;;;;;;1999.90;999.90;;;;;;;;;;4955705;28;20224;-68
2022/08/30 05:51:28;;;;;;;1999.90;999.90;;;;;;;;;;4956187;28;20371;-68
2022/08/30 05:54:14;;;;;;;1999.90;999.90;;;;;;;;;;4955934;29;20212;-68
2022/08/30 05:57:00;;;;;;;1999.90;999.90;;;;;;;;;;4955788;29;20205;-69
2022/08/30 05:59:45;;;;;;;1999.90;999.90;;;;;;;;;;4955954;29;20344;-68
2022/08/30 06:02:30;;;;;;;1999.90;999.90;;;;;;;;;;4955642;28;20255;-68
2022/08/30 06:05:15;;;;;;;1999.90;999.90;;;;;;;;;;4955535;29;20212;-68
2022/08/30 06:08:00;;;;;;;1999.90;999.90;;;;;;;;;;4955756;29;20576;-69
2022/08/30 06:10:45;;;;;;;1999.90;999.90;;;;;;;;;;4955588;28;20235;-69
2022/08/30 06:13:31;;;;;;;1999.90;999.90;;;;;;;;;;4955623;29;20209;-67
2022/08/30 06:16:18;;;;;;;1999.90;999.90;;;;;;;;;;4955026;29;20204;-69
2022/08/30 06:19:02;;;;;;;1999.90;999.90;;;;;;;;;;4955686;29;20201;-70
2022/08/30 06:21:48;;;;;;;1999.90;999.90;;;;;;;;;;4955437;28;20337;-68
2022/08/30 06:24:35;;;;;;;1999.90;999.90;;;;;;;;;;4957428;28;20813;-67
2022/08/30 06:27:19;;;;;;;1999.90;999.90;;;;;;;;;;4971841;28;20255;-68
2022/08/30 06:30:09;;;;;;;1999.90;999.90;;;;;;;;;;4974644;28;20620;-68
2022/08/30 06:32:54;;;;;;;1999.90;999.90;;;;;;;;;;4973957;28;20211;-69
2022/08/30 06:35:39;;;;;;;1999.90;999.90;;;;;;;;;;4969114;28;20212;-70
2022/08/30 06:38:24;;;;;;;1999.90;999.90;;;;;;;;;;4970667;28;20271;-69
2022/08/30 06:41:09;;;;;;;1999.90;999.90;;;;;;;;;;4972476;28;21061;-68
2022/08/30 06:43:55;;;;;;;1999.90;999.90;;;;;;;;;;4972639;28;20718;-69
2022/08/30 06:46:42;;;;;;;1999.90;999.90;;;;;;;;;;4973169;28;20205;-69
2022/08/30 06:49:27;;;;;;;1999.90;999.90;;;;;;;;;;4972861;28;20578;-69
2022/08/30 06:52:11;;;;;;;1999.90;999.90;;;;;;;;;;4972894;28;20232;-69
2022/08/30 06:54:57;;;;;;;1999.90;999.90;;;;;;;;;;4973881;28;20335;-69
2022/08/30 06:57:42;;;;;;;1999.90;999.90;;;;;;;;;;4974001;28;20209;-70
2022/08/30 07:00:28;;;;;;;1999.90;999.90;;;;;;;;;;4973207;28;20272;-69
2022/08/30 07:03:14;;;;;;;1999.90;999.90;;;;;;;;;;4973900;28;20786;-69
2022/08/30 07:05:59;;;;;;;1999.90;999.90;;;;;;;;;;4973260;28;20701;-70
2022/08/30 07:08:44;;;;;;;1999.90;999.90;;;;;;;;;;4972813;28;20222;-69
2022/08/30 07:11:30;;;;;;;1999.90;999.90;;;;;;;;;;4972472;28;20345;-69
2022/08/30 07:14:16;;;;;;;1999.90;999.90;;;;;;;;;;4972193;28;20646;-68
2022/08/30 07:17:00;;;;;;;1999.90;999.90;;;;;;;;;;4972505;28;20211;-69
2022/08/30 07:19:47;;;;;;;1999.90;999.90;;;;;;;;;;4972344;28;20324;-69
2022/08/30 07:22:33;;;;;;;1999.90;999.90;;;;;;;;;;4971512;28;20227;-69
2022/08/30 07:25:18;;;;;;;1999.90;999.90;;;;;;;;;;4971900;28;20579;-69
2022/08/30 07:28:03;;;;;;;1999.90;999.90;;;;;;;;;;4972389;28;20287;-69
2022/08/30 07:30:48;;;;;;;1999.90;999.90;;;;;;;;;;4971847;28;20243;-69
2022/08/30 07:33:34;;;;;;;1999.90;999.90;;;;;;;;;;4967616;28;20339;-70
2022/08/30 07:36:21;;;;;;;1999.90;999.90;;;;;;;;;;4967823;28;20212;-70
2022/08/30 07:39:06;;;;;;;1999.90;999.90;;;;;;;;;;4972086;28;20813;-67
2022/08/30 07:41:51;;;;;;;1999.90;999.90;;;;;;;;;;4970344;28;20234;-69
2022/08/30 07:44:36;;;;;;;1999.90;999.90;;;;;;;;;;4969865;28;20245;-69
2022/08/30 07:47:21;;;;;;;1999.90;999.90;;;;;;;;;;4968750;28;20211;-70
2022/08/30 07:50:07;;;;;;;1999.90;999.90;;;;;;;;;;4969081;28;20208;-69
2022/08/30 07:52:53;;;;;;;1999.90;999.90;;;;;;;;;;4970295;28;20283;-70
2022/08/30 07:55:38;;;;;;;1999.90;999.90;;;;;;;;;;4972984;28;20574;-71
2022/08/30 07:58:24;;;;;;;1999.90;999.90;;;;;;;;;;4967653;28;20340;-70
2022/08/30 08:01:10;;;;;;;1999.90;999.90;;;;;;;;;;4965225;28;20243;-68
2022/08/30 08:03:55;;;;;;;1999.90;999.90;;;;;;;;;;4965480;28;20220;-68
2022/08/30 08:06:40;;;;;;;1999.90;999.90;;;;;;;;;;4965988;28;20294;-69
2022/08/30 08:09:26;;;;;;;1999.90;999.90;;;;;;;;;;4971850;28;20228;-67
2022/08/30 08:12:11;;;;;;;1999.90;999.90;;;;;;;;;;4973809;28;20224;-67
2022/08/30 08:14:56;;;;;;;1999.90;999.90;;;;;;;;;;4967376;28;20334;-68
2022/08/30 08:17:41;;;;;;;1999.90;999.90;;;;;;;;;;4976600;28;20219;-69
2022/08/30 08:20:26;;;;;;;1999.90;999.90;;;;;;;;;;4976883;28;20215;-70
2022/08/30 08:23:11;;;;;;;1999.90;999.90;;;;;;;;;;4976773;28;20224;-69
2022/08/30 08:25:57;;;;;;;1999.90;999.90;;;;;;;;;;4967453;28;20216;-69
2022/08/30 08:28:43;;;;;;;1999.90;999.90;;;;;;;;;;4976897;28;20276;-69
2022/08/30 08:31:28;;;;;;;1999.90;999.90;;;;;;;;;;4976519;28;20232;-68
2022/08/30 08:34:13;;;;;;;1999.90;999.90;;;;;;;;;;4976511;28;20299;-67
2022/08/30 08:36:58;;;;;;;1999.90;999.90;;;;;;;;;;4975270;28;20220;-70
2022/08/30 08:39:43;;;;;;;1999.90;999.90;;;;;;;;;;4970913;28;20215;-67
2022/08/30 08:42:35;;;;;;;1999.90;999.90;;;;;;;;;;4973146;28;20480;-68
2022/08/30 08:45:23;;;;;;;1999.90;999.90;;;;;;;;;;4975059;28;20299;-69
2022/08/30 08:48:11;;;;;;;1999.90;999.90;;;;;;;;;;4974703;28;20227;-69
2022/08/30 08:54:00;;;;;;;1999.90;999.90;;;;;;;;;;4975149;28;20274;-70
2022/08/30 08:56:46;;;;;;;1999.90;999.90;;;;;;;;;;4975706;28;20278;-69
2022/08/30 08:59:32;;;;;;;1999.90;999.90;;;;;;;;;;4975183;28;20573;-68
2022/08/30 09:02:22;;;;;;;1999.90;999.90;;;;;;;;;;4966959;28;20622;-69
2022/08/30 09:05:08;;;;;;;1999.90;999.90;;;;;;;;;;4975486;28;20740;-70
2022/08/30 09:07:57;;;;;;;1999.90;999.90;;;;;;;;;;4976111;28;20207;-70
2022/08/30 09:10:46;;;;;;;1999.90;999.90;;;;;;;;;;4975546;28;20749;-68
2022/08/30 09:13:31;;;;;;;1999.90;999.90;;;;;;;;;;4956430;29;20552;-69
2022/08/30 09:16:31;;;;;;;1999.90;999.90;;;;;;;;;;4965488;28;20217;-70
2022/08/30 09:19:31;;;;;;;1999.90;999.90;;;;;;;;;;4975710;28;20343;-69
2022/08/30 09:22:25;;;;;;;1999.90;999.90;;;;;;;;;;4974938;28;20318;-68
2022/08/30 09:25:21;;;;;;;1999.90;999.90;;;;;;;;;;4974583;28;20446;-68
2022/08/30 09:28:11;;;;;;;1999.90;999.90;;;;;;;;;;4975821;28;20212;-68
2022/08/30 09:31:01;;;;;;;1999.90;999.90;;;;;;;;;;4975607;28;20235;-68
2022/08/30 09:33:53;;;;;;;1999.90;999.90;;;;;;;;;;4975517;28;20758;-67
2022/08/30 09:36:40;;;;;;;1999.90;999.90;;;;;;;;;;4974473;28;20280;-69
2022/08/30 09:39:29;;;;;;;1999.90;999.90;;;;;;;;;;4956239;29;20216;-69
2022/08/30 09:42:17;;;;;;;1999.90;999.90;;;;;;;;;;4969639;28;20236;-68
2022/08/30 09:45:11;;;;;;;1999.90;999.90;;;;;;;;;;4973781;28;20438;-68
2022/08/30 09:47:56;;;;;;;1999.90;999.90;;;;;;;;;;4973514;28;20267;-67
2022/08/30 09:50:42;;;;;;;1999.90;999.90;;;;;;;;;;4970271;28;20228;-67
2022/08/30 09:53:33;;;;;;;1999.90;999.90;;;;;;;;;;4975266;28;20204;-68
2022/08/30 09:56:22;;;;;;;1999.90;999.90;;;;;;;;;;4955619;29;20212;-69
2022/08/30 09:59:11;;;;;;;1999.90;999.90;;;;;;;;;;4956682;28;20232;-67
2022/08/30 10:02:00;;;;;;;1999.90;999.90;;;;;;;;;;4973995;28;20602;-67
2022/08/30 10:04:48;;;;;;;1999.90;999.90;;;;;;;;;;4969553;28;20630;-69
2022/08/30 10:07:35;;;;;;;1999.90;999.90;;;;;;;;;;4969232;28;20701;-68
2022/08/30 10:10:25;;;;;;;1999.90;999.90;;;;;;;;;;4974915;28;20351;-69
2022/08/30 10:13:24;;;;;;;1999.90;999.90;;;;;;;;;;4972769;28;20212;-68
2022/08/30 10:16:14;;;;;;;1999.90;999.90;;;;;;;;;;4970684;28;20212;-68
2022/08/30 10:19:03;;;;;;;1999.90;999.90;;;;;;;;;;4971105;28;20239;-68
2022/08/30 10:21:52;;;;;;;1999.90;999.90;;;;;;;;;;4970794;28;20232;-69
2022/08/30 10:24:39;;;;;;;1999.90;999.90;;;;;;;;;;4974357;28;20747;-68
2022/08/30 10:27:25;;;;;;;1999.90;999.90;;;;;;;;;;4971667;28;20439;-68
2022/08/30 10:30:13;;;;;;;1999.90;999.90;;;;;;;;;;4973539;28;20215;-68
2022/08/30 10:33:00;;;;;;;1999.90;999.90;;;;;;;;;;4965457;28;20584;-68
2022/08/30 10:35:47;;;;;;;1999.90;999.90;;;;;;;;;;4953772;29;20204;-68
2022/08/30 10:38:33;;;;;;;1999.90;999.90;;;;;;;;;;4968410;28;20261;-68
2022/08/30 10:41:22;;;;;;;1999.90;999.90;;;;;;;;;;4974199;28;20236;-68
2022/08/30 10:44:11;;;;;;;1999.90;999.90;;;;;;;;;;4974097;28;20627;-68
2022/08/30 10:47:05;;;;;;;1999.90;999.90;;;;;;;;;;4974522;28;20223;-69
2022/08/30 10:49:52;;;;;;;1999.90;999.90;;;;;;;;;;4974134;28;20211;-69
2022/08/30 10:52:40;;;;;;;1999.90;999.90;;;;;;;;;;4972979;28;20747;-69
2022/08/30 10:55:28;;;;;;;1999.90;999.90;;;;;;;;;;4962511;28;20208;-69
2022/08/30 10:58:14;;;;;;;1999.90;999.90;;;;;;;;;;4974021;28;20278;-70
2022/08/30 11:01:08;;;;;;;1999.90;999.90;;;;;;;;;;4972887;28;20232;-69
2022/08/30 11:04:10;;;;;;;1999.90;999.90;;;;;;;;;;4970652;28;20737;-70
2022/08/30 11:07:00;;;;;;;1999.90;999.90;;;;;;;;;;4954646;29;20707;-68
2022/08/30 11:10:16;;;;;;;1999.90;999.90;;;;;;;;;;4954519;29;20280;-69
2022/08/30 11:13:03;;;;;;;1999.90;999.90;;;;;;;;;;4884948;29;20207;-68
2022/08/30 11:15:53;;;;;;;1999.90;999.90;;;;;;;;;;4969971;28;20212;-68
2022/08/30 11:18:42;;;;;;;1999.90;999.90;;;;;;;;;;4954554;29;20204;-68
2022/08/30 11:21:33;;;;;;;1999.90;999.90;;;;;;;;;;4968043;28;20275;-69
2022/08/30 11:24:20;;;;;;;1999.90;999.90;;;;;;;;;;4973196;28;20708;-66
2022/08/30 11:27:05;;;;;;;1999.90;999.90;;;;;;;;;;4973868;28;20582;-67
2022/08/30 11:29:50;;;;;;;1999.90;999.90;;;;;;;;;;4973804;28;20279;-67
2022/08/30 11:32:57;;;;;;;1999.90;999.90;;;;;;;;;;4973299;28;20235;-67
2022/08/30 11:35:43;;;;;;;1999.90;999.90;;;;;;;;;;4967779;28;20212;-71
2022/08/30 11:38:42;;;;;;;1999.90;999.90;;;;;;;;;;4962174;28;20212;-68
2022/08/30 11:41:34;;;;;;;1999.90;999.90;;;;;;;;;;4953863;28;20244;-68
2022/08/30 11:44:27;;;;;;;1999.90;999.90;;;;;;;;;;4960710;28;20221;-67
2022/08/30 11:47:27;;;;;;;1999.90;999.90;;;;;;;;;;4966977;28;20507;-68
2022/08/30 11:50:14;;;;;;;1999.90;999.90;;;;;;;;;;4972013;28;20284;-69
2022/08/30 11:53:02;;;;;;;1999.90;999.90;;;;;;;;;;4953950;29;20236;-67
2022/08/30 11:55:56;;;;;;;1999.90;999.90;;;;;;;;;;4970538;28;20200;-67
2022/08/30 11:58:47;;;;;;;1999.90;999.90;;;;;;;;;;4972366;28;20610;-67
2022/08/30 12:01:34;;;;;;;1999.90;999.90;;;;;;;;;;4969565;28;20239;-70
2022/08/30 12:04:36;;;;;;;1999.90;999.90;;;;;;;;;;4972563;28;20613;-68
2022/08/30 12:07:36;;;;;;;1999.90;999.90;;;;;;;;;;4966125;28;20211;-68
2022/08/30 12:10:23;;;;;;;1999.90;999.90;;;;;;;;;;4973224;28;20243;-67
2022/08/30 12:13:08;;;;;;;1999.90;999.90;;;;;;;;;;4973084;28;20287;-66
2022/08/30 12:15:57;;;;;;;1999.90;999.90;;;;;;;;;;4972802;28;20668;-67
2022/08/30 12:18:42;;;;;;;1999.90;999.90;;;;;;;;;;4965148;28;20215;-69
2022/08/30 12:21:28;;;;;;;1999.90;999.90;;;;;;;;;;4964374;28;20227;-67
2022/08/30 12:24:17;;;;;;;1999.90;999.90;;;;;;;;;;4972402;28;20236;-67
2022/08/30 12:27:20;;;;;;;1999.90;999.90;;;;;;;;;;4972956;28;20228;-68
2022/08/30 12:30:07;;;;;;;1999.90;999.90;;;;;;;;;;4971456;28;20207;-67
2022/08/30 12:32:54;;;;;;;1999.90;999.90;;;;;;;;;;4969185;28;20592;-68
2022/08/30 12:35:40;;;;;;;1999.90;999.90;;;;;;;;;;4966903;28;20343;-67
2022/08/30 12:38:25;;;;;;;1999.90;999.90;;;;;;;;;;4971245;28;20235;-67
2022/08/30 12:41:17;;;;;;;1999.90;999.90;;;;;;;;;;4971587;28;20286;-68
2022/08/30 12:44:02;;;;;;;1999.90;999.90;;;;;;;;;;4969778;28;20247;-67
2022/08/30 12:46:49;;;;;;;1999.90;999.90;;;;;;;;;;4971359;28;20207;-67
2022/08/30 12:49:37;;;;;;;1999.90;999.90;;;;;;;;;;4971724;28;20209;-68
2022/08/30 12:52:28;;;;;;;1999.90;999.90;;;;;;;;;;4970148;28;20526;-67
2022/08/30 12:55:15;;;;;;;1999.90;999.90;;;;;;;;;;4964260;28;20574;-69
2022/08/30 12:58:01;;;;;;;1999.90;999.90;;;;;;;;;;4971983;28;20210;-68
2022/08/30 13:00:46;;;;;;;1999.90;999.90;;;;;;;;;;4976206;28;20291;-69
2022/08/30 13:03:33;;;;;;;1999.90;999.90;;;;;;;;;;4976193;28;20335;-69
2022/08/30 13:06:35;;;;;;;1999.90;999.90;;;;;;;;;;4974649;28;20742;-69
2022/08/30 13:09:25;;;;;;;1999.90;999.90;;;;;;;;;;4973455;28;20220;-70
2022/08/30 13:12:20;;;;;;;1999.90;999.90;;;;;;;;;;4973371;28;20357;-69
2022/08/30 13:15:13;;;;;;;1999.90;999.90;;;;;;;;;;4975349;28;20581;-69
2022/08/30 13:18:11;;;;;;;1999.90;999.90;;;;;;;;;;4975708;28;20580;-67
2022/08/30 13:21:09;;;;;;;1999.90;999.90;;;;;;;;;;4972801;28;20605;-68
2022/08/30 13:23:57;;;;;;;1999.90;999.90;;;;;;;;;;4968053;28;20210;-68
2022/08/30 13:26:43;;;;;;;1999.90;999.90;;;;;;;;;;4969984;28;20344;-68
2022/08/30 13:29:29;;;;;;;1999.90;999.90;;;;;;;;;;4974498;28;20426;-68
2022/08/30 13:32:14;;;;;;;1999.90;999.90;;;;;;;;;;4973493;28;20260;-69
2022/08/30 13:34:59;;;;;;;1999.90;999.90;;;;;;;;;;4973219;28;20233;-68
2022/08/30 13:37:44;;;;;;;1999.90;999.90;;;;;;;;;;4972569;28;20218;-69
2022/08/30 13:40:31;;;;;;;1999.90;999.90;;;;;;;;;;4974102;28;20229;-69
2022/08/30 13:43:16;;;;;;;1999.90;999.90;;;;;;;;;;4971428;28;20707;-68
2022/08/30 13:46:01;;;;;;;1999.90;999.90;;;;;;;;;;4973064;28;20229;-68
2022/08/30 13:48:46;;;;;;;1999.90;999.90;;;;;;;;;;4971443;28;20868;-69
2022/08/30 13:51:31;;;;;;;1999.90;999.90;;;;;;;;;;4966142;28;20240;-68
2022/08/30 13:54:17;;;;;;;1999.90;999.90;;;;;;;;;;4969673;28;20209;-68
2022/08/30 13:57:03;;;;;;;1999.90;999.90;;;;;;;;;;4974069;28;20214;-68
2022/08/30 13:59:48;;;;;;;1999.90;999.90;;;;;;;;;;4973475;28;20224;-69
2022/08/30 14:02:33;;;;;;;1999.90;999.90;;;;;;;;;;4973667;28;20231;-68
2022/08/30 14:05:18;;;;;;;1999.90;999.90;;;;;;;;;;4971524;28;20315;-68
2022/08/30 14:08:03;;;;;;;1999.90;999.90;;;;;;;;;;4972868;28;20228;-68
2022/08/30 14:10:48;;;;;;;1999.90;999.90;;;;;;;;;;4973468;28;20227;-69
2022/08/30 14:13:34;;;;;;;1999.90;999.90;;;;;;;;;;4973638;28;20244;-69
2022/08/30 14:16:19;;;;;;;1999.90;999.90;;;;;;;;;;4973213;28;20340;-69
2022/08/30 14:19:05;;;;;;;1999.90;999.90;;;;;;;;;;4972434;28;20210;-68
2022/08/30 14:21:50;;;;;;;1999.90;999.90;;;;;;;;;;4973283;28;20732;-68
2022/08/30 14:24:35;;;;;;;1999.90;999.90;;;;;;;;;;4969714;28;20582;-68
2022/08/30 14:27:20;;;;;;;1999.90;999.90;;;;;;;;;;4973681;28;20770;-68
2022/08/30 14:30:07;;;;;;;1999.90;999.90;;;;;;;;;;4971857;28;20208;-68
2022/08/30 14:32:52;;;;;;;1999.90;999.90;;;;;;;;;;4973449;28;20294;-69
2022/08/30 14:35:37;;;;;;;1999.90;999.90;;;;;;;;;;4972942;28;20213;-68
2022/08/30 14:38:22;;;;;;;1999.90;999.90;;;;;;;;;;4973273;28;20212;-69
2022/08/30 14:41:07;;;;;;;1999.90;999.90;;;;;;;;;;4973039;28;20976;-69
2022/08/30 14:43:52;;;;;;;1999.90;999.90;;;;;;;;;;4972891;28;20345;-68
2022/08/30 14:46:38;;;;;;;1999.90;999.90;;;;;;;;;;4972302;28;20297;-68
2022/08/30 14:49:23;;;;;;;1999.90;999.90;;;;;;;;;;4971572;28;20442;-69
2022/08/30 14:52:09;;;;;;;1999.90;999.90;;;;;;;;;;4972850;28;20237;-69
2022/08/30 14:54:54;;;;;;;1999.90;999.90;;;;;;;;;;4969700;28;20228;-69
2022/08/30 14:57:39;;;;;;;1999.90;999.90;;;;;;;;;;4969609;28;20219;-70
2022/08/30 15:00:24;;;;;;;1999.90;999.90;;;;;;;;;;4974108;28;20208;-70
2022/08/30 15:03:11;;;;;;;1999.90;999.90;;;;;;;;;;4973925;28;20248;-71
2022/08/30 15:05:56;;;;;;;1999.90;999.90;;;;;;;;;;4973693;28;20228;-69
2022/08/30 15:08:41;;;;;;;1999.90;999.90;;;;;;;;;;4973953;28;20204;-71
2022/08/30 15:11:26;;;;;;;1999.90;999.90;;;;;;;;;;4973662;28;20267;-70
2022/08/30 15:14:11;;;;;;;1999.90;999.90;;;;;;;;;;4973829;28;20211;-71
2022/08/30 15:16:58;;;;;;;1999.90;999.90;;;;;;;;;;4973980;28;20207;-70
2022/08/30 15:19:44;;;;;;;1999.90;999.90;;;;;;;;;;4973263;28;20561;-70
2022/08/30 15:22:29;;;;;;;1999.90;999.90;;;;;;;;;;4973578;28;20304;-70
2022/08/30 15:25:14;;;;;;;1999.90;999.90;;;;;;;;;;4971846;28;20447;-70
2022/08/30 15:27:59;;;;;;;1999.90;999.90;;;;;;;;;;4964441;28;20227;-69
2022/08/30 15:30:44;;;;;;;1999.90;999.90;;;;;;;;;;4971805;28;20243;-69
2022/08/30 15:33:29;;;;;;;1999.90;999.90;;;;;;;;;;4973428;28;20246;-69
2022/08/30 15:36:15;;;;;;;1999.90;999.90;;;;;;;;;;4971922;28;20283;-70
2022/08/30 15:39:00;;;;;;;1999.90;999.90;;;;;;;;;;4969503;28;20705;-69
2022/08/30 15:41:46;;;;;;;1999.90;999.90;;;;;;;;;;4967464;28;20606;-68
2022/08/30 15:44:32;;;;;;;1999.90;999.90;;;;;;;;;;4971341;28;20919;-69
2022/08/30 15:47:18;;;;;;;1999.90;999.90;;;;;;;;;;4971966;28;20226;-69
2022/08/30 15:50:05;;;;;;;1999.90;999.90;;;;;;;;;;4972101;28;20703;-68
2022/08/30 15:52:51;;;;;;;1999.90;999.90;;;;;;;;;;4972013;28;20221;-68
2022/08/30 15:55:36;;;;;;;1999.90;999.90;;;;;;;;;;4969064;28;20214;-69
2022/08/30 15:58:21;;;;;;;1999.90;999.90;;;;;;;;;;4970379;28;20210;-69
2022/08/30 16:01:06;;;;;;;1999.90;999.90;;;;;;;;;;4968156;28;20807;-71
2022/08/30 16:03:51;;;;;;;1999.90;999.90;;;;;;;;;;4968396;28;20578;-71
2022/08/30 16:06:36;;;;;;;1999.90;999.90;;;;;;;;;;4971458;28;20260;-71
2022/08/30 16:09:23;;;;;;;1999.90;999.90;;;;;;;;;;4971898;28;20208;-71
2022/08/30 16:12:08;;;;;;;1999.90;999.90;;;;;;;;;;4971525;28;20231;-70
2022/08/30 16:14:53;;;;;;;1999.90;999.90;;;;;;;;;;4971507;28;20283;-72
2022/08/30 16:17:38;;;;;;;1999.90;999.90;;;;;;;;;;4964067;28;20235;-71
2022/08/30 16:20:23;;;;;;;1999.90;999.90;;;;;;;;;;4968794;28;20213;-70
2022/08/30 16:23:08;;;;;;;1999.90;999.90;;;;;;;;;;4971394;28;20411;-72
2022/08/30 16:25:55;;;;;;;1999.90;999.90;;;;;;;;;;4971254;28;20303;-70
2022/08/30 16:28:40;;;;;;;1999.90;999.90;;;;;;;;;;4965298;28;20237;-71
2022/08/30 16:31:26;;;;;;;1999.90;999.90;;;;;;;;;;4972166;28;20236;-70
2022/08/30 16:34:11;;;;;;;1999.90;999.90;;;;;;;;;;4965783;28;20598;-71
2022/08/30 16:36:56;;;;;;;1999.90;999.90;;;;;;;;;;4966521;28;20216;-71
2022/08/30 16:39:41;;;;;;;1999.90;999.90;;;;;;;;;;4965932;28;20211;-71
2022/08/30 16:42:28;;;;;;;1999.90;999.90;;;;;;;;;;4973677;28;20537;-71
2022/08/30 16:45:13;;;;;;;1999.90;999.90;;;;;;;;;;4970197;28;20776;-71
2022/08/30 16:47:58;;;;;;;1999.90;999.90;;;;;;;;;;4965329;28;20219;-71
2022/08/30 16:50:44;;;;;;;1999.90;999.90;;;;;;;;;;4966544;28;20240;-71
2022/08/30 16:53:29;;;;;;;1999.90;999.90;;;;;;;;;;4965009;28;20208;-70
2022/08/30 16:56:15;;;;;;;1999.90;999.90;;;;;;;;;;4974328;28;20211;-71
2022/08/30 16:59:02;;;;;;;1999.90;999.90;;;;;;;;;;4975112;28;20217;-69
2022/08/30 17:01:47;;;;;;;1999.90;999.90;;;;;;;;;;4936294;28;1076439;-70
2022/08/30 17:04:32;;;;;;;1999.90;999.90;;;;;;;;;;4974068;28;20215;-70
2022/08/30 17:07:17;;;;;;;1999.90;999.90;;;;;;;;;;4959893;28;20251;-70
2022/08/30 17:10:03;;;;;;;1999.90;999.90;;;;;;;;;;4973815;28;20294;-70
2022/08/30 17:12:48;;;;;;;1999.90;999.90;;;;;;;;;;4967193;28;20580;-72
2022/08/30 17:15:35;;;;;;;1999.90;999.90;;;;;;;;;;4969353;28;20203;-70
2022/08/30 17:18:20;;;;;;;1999.90;999.90;;;;;;;;;;4976035;28;20216;-70
2022/08/30 17:21:05;;;;;;;1999.90;999.90;;;;;;;;;;4974406;28;20231;-70
2022/08/30 17:23:50;;;;;;;1999.90;999.90;;;;;;;;;;4974364;28;20597;-70
2022/08/30 17:26:36;;;;;;;1999.90;999.90;;;;;;;;;;4974035;28;20228;-71
2022/08/30 17:29:21;;;;;;;1999.90;999.90;;;;;;;;;;4974438;28;20303;-71
2022/08/30 17:32:07;;;;;;;1999.90;999.90;;;;;;;;;;4974119;28;20244;-70
2022/08/30 17:34:53;;;;;;;1999.90;999.90;;;;;;;;;;4974314;28;20689;-72
2022/08/30 17:37:37;;;;;;;1999.90;999.90;;;;;;;;;;4974530;28;20212;-71
2022/08/30 17:40:22;;;;;;;1999.90;999.90;;;;;;;;;;4963366;28;20288;-72
2022/08/30 17:43:07;;;;;;;1999.90;999.90;;;;;;;;;;4968552;28;20450;-72
2022/08/30 17:45:53;;;;;;;1999.90;999.90;;;;;;;;;;4970416;28;20715;-71
2022/08/30 17:48:40;;;;;;;1999.90;999.90;;;;;;;;;;4969887;28;20207;-69
2022/08/30 17:51:24;;;;;;;1999.90;999.90;;;;;;;;;;4975279;28;20227;-71
2022/08/30 17:54:10;;;;;;;1999.90;999.90;;;;;;;;;;4973693;28;20263;-70
2022/08/30 17:56:56;;;;;;;1999.90;999.90;;;;;;;;;;4966622;28;20723;-72
2022/08/30 17:59:44;;;;;;;1999.90;999.90;;;;;;;;;;4959439;28;20271;-70
2022/08/30 18:02:29;;;;;;;1999.90;999.90;;;;;;;;;;4971289;28;20338;-70
2022/08/30 18:05:15;;;;;;;1999.90;999.90;;;;;;;;;;4972258;28;20211;-71
2022/08/30 18:08:00;;;;;;;1999.90;999.90;;;;;;;;;;4963583;28;20209;-72
2022/08/30 18:10:45;;;;;;;1999.90;999.90;;;;;;;;;;4969733;28;20598;-71
2022/08/30 18:13:30;;;;;;;1999.90;999.90;;;;;;;;;;4973162;28;20214;-71
2022/08/30 18:16:15;;;;;;;1999.90;999.90;;;;;;;;;;4973509;28;20260;-72
2022/08/30 18:19:00;;;;;;;1999.90;999.90;;;;;;;;;;4971168;28;20215;-70
2022/08/30 18:21:46;;;;;;;1999.90;999.90;;;;;;;;;;4973674;28;20236;-71
2022/08/30 18:24:31;;;;;;;1999.90;999.90;;;;;;;;;;4960593;28;20762;-71
2022/08/30 18:27:16;;;;;;;1999.90;999.90;;;;;;;;;;4974375;28;20228;-68
2022/08/30 18:30:03;;;;;;;1999.90;999.90;;;;;;;;;;4974385;28;20344;-70
2022/08/30 18:32:48;;;;;;;1999.90;999.90;;;;;;;;;;4971224;28;20633;-70
2022/08/30 18:35:33;;;;;;;1999.90;999.90;;;;;;;;;;4973933;28;20767;-70
2022/08/30 18:38:20;;;;;;;1999.90;999.90;;;;;;;;;;4971590;28;20216;-70
2022/08/30 18:41:06;;;;;;;1999.90;999.90;;;;;;;;;;4972428;28;20310;-70
2022/08/30 18:43:51;;;;;;;1999.90;999.90;;;;;;;;;;4970965;28;20840;-70
2022/08/30 18:46:36;;;;;;;1999.90;999.90;;;;;;;;;;4970987;28;20313;-71
2022/08/30 18:49:21;;;;;;;1999.90;999.90;;;;;;;;;;4969842;28;20695;-71
2022/08/30 18:52:06;;;;;;;1999.90;999.90;;;;;;;;;;4972557;28;20247;-70
2022/08/30 18:54:53;;;;;;;1999.90;999.90;;;;;;;;;;4964388;28;20227;-70
2022/08/30 18:57:38;;;;;;;1999.90;999.90;;;;;;;;;;4967439;28;20271;-71
2022/08/30 19:00:23;;;;;;;1999.90;999.90;;;;;;;;;;4965209;28;20212;-71
2022/08/30 19:03:08;;;;;;;1999.90;999.90;;;;;;;;;;4970117;28;20205;-70
2022/08/30 19:05:53;;;;;;;1999.90;999.90;;;;;;;;;;4960756;28;20227;-70
2022/08/30 19:08:40;;;;;;;1999.90;999.90;;;;;;;;;;4972901;28;20341;-69
2022/08/30 19:11:26;;;;;;;1999.90;999.90;;;;;;;;;;4967526;28;20458;-70
2022/08/30 19:14:10;;;;;;;1999.90;999.90;;;;;;;;;;4972033;28;20218;-71
2022/08/30 19:16:58;;;;;;;1999.90;999.90;;;;;;;;;;4957436;28;20211;-70
2022/08/30 19:19:42;;;;;;;1999.90;999.90;;;;;;;;;;4973677;28;20298;-69
2022/08/30 19:22:27;;;;;;;1999.90;999.90;;;;;;;;;;4972562;28;20247;-71
2022/08/30 19:25:13;;;;;;;1999.90;999.90;;;;;;;;;;4968572;28;20218;-70
2022/08/30 19:27:59;;;;;;;1999.90;999.90;;;;;;;;;;4969024;28;20238;-71
2022/08/30 19:30:44;;;;;;;1999.90;999.90;;;;;;;;;;4972069;28;20227;-71
2022/08/30 19:33:29;;;;;;;1999.90;999.90;;;;;;;;;;4971173;28;20299;-71